Time;durP1;ratioP1;P1;durP2;ratioP2;P2;SDS_P1;SDS_P2;PMS_P1;PMS_P2;Temp;Humidity;BMP_temperature;BMP_pressure;BME280_temperature;BME280_humidity;BME280_pressure;Samples;Min_cycle;Max_cycle;Signal;HPM_P1;HPM_P2
2023/10/03 00:00:49;;;;;;;20.55;19.33;;;;;;;;;;5003142;28;20046;-61
2023/10/03 00:03:15;;;;;;;23.80;22.20;;;;;;;;;;5000928;28;20395;-62
2023/10/03 00:05:42;;;;;;;23.08;21.48;;;;;;;;;;4984318;28;20048;-62
2023/10/03 00:08:08;;;;;;;21.10;19.75;;;;;;;;;;4968836;28;20159;-62
2023/10/03 00:10:38;;;;;;;23.00;20.92;;;;;;;;;;5001078;28;20375;-62
2023/10/03 00:13:07;;;;;;;22.03;20.83;;;;;;;;;;5003301;28;20046;-62
2023/10/03 00:15:33;;;;;;;22.60;21.00;;;;;;;;;;5000564;28;20646;-62
2023/10/03 00:17:58;;;;;;;19.92;18.80;;;;;;;;;;5002724;28;20099;-63
2023/10/03 00:20:24;;;;;;;20.85;19.50;;;;;;;;;;5000732;28;20031;-62
2023/10/03 00:22:51;;;;;;;21.02;19.75;;;;;;;;;;4999089;28;20022;-62
2023/10/03 00:25:23;;;;;;;21.83;20.27;;;;;;;;;;5000440;28;20104;-62
2023/10/03 00:27:54;;;;;;;19.88;18.58;;;;;;;;;;4998004;28;20034;-62
2023/10/03 00:30:23;;;;;;;21.08;19.67;;;;;;;;;;4982908;28;20044;-62
2023/10/03 00:32:49;;;;;;;22.60;21.00;;;;;;;;;;5002105;28;20026;-62
2023/10/03 00:35:16;;;;;;;19.58;18.38;;;;;;;;;;5000987;28;20037;-62
2023/10/03 00:37:44;;;;;;;21.95;20.55;;;;;;;;;;5000037;28;20046;-62
2023/10/03 00:40:27;;;;;;;21.52;19.98;;;;;;;;;;5000219;28;20078;-62
2023/10/03 00:42:57;;;;;;;20.67;19.45;;;;;;;;;;4996872;28;20038;-62
2023/10/03 00:45:24;;;;;;;21.77;20.50;;;;;;;;;;5003205;28;20116;-61
2023/10/03 00:47:58;;;;;;;23.95;22.40;;;;;;;;;;5005446;28;20041;-62
2023/10/03 00:50:28;;;;;;;20.10;18.83;;;;;;;;;;5004186;28;20018;-64
2023/10/03 00:52:57;;;;;;;23.55;22.08;;;;;;;;;;5006556;28;20030;-64
2023/10/03 00:55:26;;;;;;;23.42;21.63;;;;;;;;;;5006417;28;20387;-62
2023/10/03 00:58:06;;;;;;;25.70;24.20;;;;;;;;;;5002928;28;20612;-62
2023/10/03 01:00:37;;;;;;;23.50;21.95;;;;;;;;;;5004318;28;20062;-62
2023/10/03 01:03:03;;;;;;;23.17;21.80;;;;;;;;;;5006170;28;20084;-62
2023/10/03 01:05:29;;;;;;;21.88;20.63;;;;;;;;;;5002088;28;20022;-62
2023/10/03 01:07:55;;;;;;;24.33;22.55;;;;;;;;;;5001582;28;20123;-62
2023/10/03 01:10:21;;;;;;;23.85;21.92;;;;;;;;;;5004374;28;20045;-62
2023/10/03 01:12:48;;;;;;;24.15;22.65;;;;;;;;;;4989006;28;20038;-62
2023/10/03 01:15:18;;;;;;;24.50;23.00;;;;;;;;;;5004085;28;20049;-62
2023/10/03 01:17:53;;;;;;;25.13;23.52;;;;;;;;;;5001921;28;20047;-62
2023/10/03 01:20:29;;;;;;;20.85;19.65;;;;;;;;;;5006873;28;20084;-62
2023/10/03 01:22:55;;;;;;;21.45;20.05;;;;;;;;;;5007830;28;20566;-61
2023/10/03 01:25:22;;;;;;;22.02;20.60;;;;;;;;;;5005911;28;20029;-62
2023/10/03 01:27:47;;;;;;;20.42;19.23;;;;;;;;;;5003503;28;20555;-62
2023/10/03 01:30:12;;;;;;;21.52;20.05;;;;;;;;;;5005460;28;20068;-61
2023/10/03 01:32:49;;;;;;;21.70;20.00;;;;;;;;;;5005399;28;20048;-62
2023/10/03 01:35:15;;;;;;;20.85;19.50;;;;;;;;;;5004517;28;20498;-61
2023/10/03 01:37:41;;;;;;;20.27;18.90;;;;;;;;;;5001837;28;20497;-61
2023/10/03 01:40:13;;;;;;;21.55;19.92;;;;;;;;;;5005356;28;20038;-61
2023/10/03 01:42:47;;;;;;;20.98;19.42;;;;;;;;;;5000118;28;20029;-61
2023/10/03 01:45:15;;;;;;;20.83;19.50;;;;;;;;;;4999246;28;20054;-62
2023/10/03 01:47:42;;;;;;;20.65;19.42;;;;;;;;;;4998693;28;20026;-61
2023/10/03 01:50:11;;;;;;;23.40;21.42;;;;;;;;;;5003904;28;20468;-64
2023/10/03 01:52:37;;;;;;;21.48;20.17;;;;;;;;;;4998839;28;20049;-64
2023/10/03 01:55:04;;;;;;;21.50;20.20;;;;;;;;;;5001177;28;20058;-64
2023/10/03 01:57:33;;;;;;;21.25;19.73;;;;;;;;;;4986115;28;20455;-64
2023/10/03 01:59:59;;;;;;;21.15;19.80;;;;;;;;;;5002264;28;20138;-64
2023/10/03 02:02:24;;;;;;;21.90;20.52;;;;;;;;;;5005382;28;20057;-64
2023/10/03 02:04:50;;;;;;;20.55;19.30;;;;;;;;;;5003111;28;20060;-64
2023/10/03 02:07:16;;;;;;;22.70;20.90;;;;;;;;;;5001282;28;20692;-63
2023/10/03 02:09:43;;;;;;;20.63;19.27;;;;;;;;;;5003506;28;20157;-65
2023/10/03 02:12:10;;;;;;;24.50;22.52;;;;;;;;;;5002964;28;20049;-64
2023/10/03 02:14:39;;;;;;;21.67;20.42;;;;;;;;;;4988315;28;20064;-64
2023/10/03 02:17:05;;;;;;;23.70;21.58;;;;;;;;;;5000022;28;20523;-64
2023/10/03 02:19:31;;;;;;;21.70;20.30;;;;;;;;;;4998663;28;20057;-64
2023/10/03 02:21:59;;;;;;;23.52;21.83;;;;;;;;;;5002842;28;20061;-64
2023/10/03 02:24:25;;;;;;;22.73;21.15;;;;;;;;;;5000828;28;20040;-64
2023/10/03 02:26:51;;;;;;;22.08;20.55;;;;;;;;;;5003115;28;20096;-64
2023/10/03 02:29:16;;;;;;;24.05;22.48;;;;;;;;;;5003482;28;20034;-64
2023/10/03 02:31:43;;;;;;;27.15;25.02;;;;;;;;;;4998546;28;20026;-64
2023/10/03 02:34:08;;;;;;;23.40;21.80;;;;;;;;;;5004485;28;20116;-64
2023/10/03 02:36:34;;;;;;;24.98;23.58;;;;;;;;;;5002344;28;20441;-64
2023/10/03 02:39:00;;;;;;;25.27;23.73;;;;;;;;;;5004874;28;20493;-64
2023/10/03 02:41:26;;;;;;;23.77;22.38;;;;;;;;;;5004088;28;20053;-64
2023/10/03 02:43:51;;;;;;;22.63;21.17;;;;;;;;;;5005708;28;20077;-64
2023/10/03 02:46:17;;;;;;;22.90;21.45;;;;;;;;;;5004977;28;20036;-65
2023/10/03 02:48:43;;;;;;;23.05;21.50;;;;;;;;;;5001728;28;20025;-64
2023/10/03 02:51:10;;;;;;;23.63;20.00;;;;;;;;;;4989573;28;20043;-64
2023/10/03 02:53:35;;;;;;;24.08;22.20;;;;;;;;;;5000209;28;20096;-65
2023/10/03 02:56:03;;;;;;;25.33;23.58;;;;;;;;;;5003049;28;20038;-64
2023/10/03 02:58:29;;;;;;;22.58;21.23;;;;;;;;;;5003449;28;20530;-65
2023/10/03 03:00:55;;;;;;;24.88;23.15;;;;;;;;;;5001739;28;20037;-65
2023/10/03 03:03:32;;;;;;;25.98;24.48;;;;;;;;;;4999223;28;20079;-64
2023/10/03 03:05:59;;;;;;;26.05;24.60;;;;;;;;;;5001567;28;20038;-64
2023/10/03 03:08:25;;;;;;;24.05;22.55;;;;;;;;;;5000501;28;20042;-65
2023/10/03 03:10:57;;;;;;;23.38;21.55;;;;;;;;;;5002050;28;20349;-64
2023/10/03 03:13:23;;;;;;;21.73;20.20;;;;;;;;;;5000755;28;20049;-64
2023/10/03 03:15:53;;;;;;;26.45;24.52;;;;;;;;;;5000266;28;20064;-64
2023/10/03 03:18:24;;;;;;;24.83;23.33;;;;;;;;;;5001057;28;20482;-65
2023/10/03 03:21:33;;;;;;;22.38;21.08;;;;;;;;;;4983647;28;20034;-64
2023/10/03 03:23:39;;;;;;;21.85;20.48;;;;;;;;;;4987759;28;20681;-64
2023/10/03 03:26:29;;;;;;;23.25;21.60;;;;;;;;;;5001893;28;20117;-64
2023/10/03 03:28:54;;;;;;;21.27;19.88;;;;;;;;;;4997842;28;20045;-65
2023/10/03 03:31:26;;;;;;;21.83;20.52;;;;;;;;;;5003201;28;20030;-64
2023/10/03 03:33:53;;;;;;;22.98;21.48;;;;;;;;;;5002344;28;20069;-64
2023/10/03 03:36:20;;;;;;;23.48;21.77;;;;;;;;;;4999383;28;20367;-64
2023/10/03 03:38:49;;;;;;;26.38;24.40;;;;;;;;;;4999991;28;20033;-64
2023/10/03 03:41:16;;;;;;;24.55;23.15;;;;;;;;;;5004039;28;20038;-64
2023/10/03 03:43:42;;;;;;;22.67;21.33;;;;;;;;;;5000854;28;20092;-64
2023/10/03 03:46:09;;;;;;;23.88;22.48;;;;;;;;;;4997883;28;20045;-64
2023/10/03 03:48:34;;;;;;;20.83;19.63;;;;;;;;;;5000157;28;20080;-64
2023/10/03 03:51:00;;;;;;;23.92;22.33;;;;;;;;;;5004508;28;20065;-65
2023/10/03 03:53:26;;;;;;;22.17;20.48;;;;;;;;;;4984054;28;20034;-65
2023/10/03 03:55:51;;;;;;;25.23;23.23;;;;;;;;;;5000494;28;20049;-66
2023/10/03 03:58:18;;;;;;;22.90;21.30;;;;;;;;;;4987548;28;20062;-66
2023/10/03 04:00:51;;;;;;;23.70;22.23;;;;;;;;;;4997422;28;20037;-65
2023/10/03 04:03:23;;;;;;;26.45;24.83;;;;;;;;;;5003353;28;20036;-66
2023/10/03 04:05:49;;;;;;;32.47;30.40;;;;;;;;;;5000161;28;20042;-64
2023/10/03 04:08:15;;;;;;;30.50;28.65;;;;;;;;;;5000146;28;20041;-64
2023/10/03 04:10:43;;;;;;;37.25;34.50;;;;;;;;;;5001270;28;20029;-64
2023/10/03 04:13:10;;;;;;;36.97;34.92;;;;;;;;;;5002094;28;20048;-64
2023/10/03 04:15:39;;;;;;;42.20;39.47;;;;;;;;;;5001009;28;20431;-64
2023/10/03 04:18:06;;;;;;;44.42;41.67;;;;;;;;;;5002732;28;20030;-64
2023/10/03 04:20:32;;;;;;;45.55;42.47;;;;;;;;;;5002217;28;20132;-65
2023/10/03 04:23:00;;;;;;;44.92;42.08;;;;;;;;;;4988155;28;20120;-64
2023/10/03 04:25:26;;;;;;;42.97;39.88;;;;;;;;;;5004432;28;20040;-62
2023/10/03 04:27:54;;;;;;;42.75;39.65;;;;;;;;;;5005191;28;20072;-61
2023/10/03 04:30:22;;;;;;;37.42;35.13;;;;;;;;;;5008030;28;20119;-61
2023/10/03 04:32:48;;;;;;;36.38;33.97;;;;;;;;;;5003280;28;20655;-61
2023/10/03 04:35:15;;;;;;;35.85;33.63;;;;;;;;;;5006222;28;20030;-62
2023/10/03 04:37:43;;;;;;;31.45;29.52;;;;;;;;;;4985495;28;20048;-62
2023/10/03 04:40:15;;;;;;;32.80;30.58;;;;;;;;;;5005649;28;20409;-62
2023/10/03 04:42:45;;;;;;;31.77;29.58;;;;;;;;;;5006967;28;20456;-62
2023/10/03 04:45:14;;;;;;;29.57;27.67;;;;;;;;;;5005410;28;20052;-62
2023/10/03 04:47:43;;;;;;;30.42;28.35;;;;;;;;;;5005648;28;20131;-62
2023/10/03 04:50:10;;;;;;;30.20;28.15;;;;;;;;;;5005716;28;20050;-62
2023/10/03 04:52:36;;;;;;;30.33;28.42;;;;;;;;;;5004497;28;20140;-62
2023/10/03 04:55:01;;;;;;;34.88;32.08;;;;;;;;;;5005881;28;20262;-62
2023/10/03 04:57:27;;;;;;;30.00;28.05;;;;;;;;;;5006293;28;20422;-62
2023/10/03 04:59:56;;;;;;;31.02;28.58;;;;;;;;;;5005365;28;20108;-62
2023/10/03 05:02:23;;;;;;;35.08;32.88;;;;;;;;;;5003540;28;20042;-63
2023/10/03 05:04:48;;;;;;;35.42;33.40;;;;;;;;;;4990264;28;20030;-61
2023/10/03 05:07:15;;;;;;;32.38;30.45;;;;;;;;;;5003950;28;20109;-64
2023/10/03 05:09:40;;;;;;;38.97;36.47;;;;;;;;;;5003069;28;20026;-64
2023/10/03 05:12:06;;;;;;;38.92;36.67;;;;;;;;;;5004551;28;20041;-64
2023/10/03 05:14:31;;;;;;;36.80;34.67;;;;;;;;;;5005057;28;20475;-63
2023/10/03 05:17:00;;;;;;;42.60;39.92;;;;;;;;;;4988836;28;20041;-64
2023/10/03 05:19:25;;;;;;;42.33;39.92;;;;;;;;;;5005970;28;20038;-63
2023/10/03 05:21:52;;;;;;;43.78;41.38;;;;;;;;;;5005640;28;20092;-65
2023/10/03 05:24:17;;;;;;;44.10;41.67;;;;;;;;;;5003127;28;20044;-65
2023/10/03 05:26:43;;;;;;;44.72;42.33;;;;;;;;;;4989738;28;20120;-65
2023/10/03 05:29:08;;;;;;;44.85;42.25;;;;;;;;;;5001818;28;20107;-65
2023/10/03 05:31:40;;;;;;;44.60;41.60;;;;;;;;;;5004638;28;20069;-65
2023/10/03 05:34:10;;;;;;;49.97;46.95;;;;;;;;;;5004488;28;20052;-65
2023/10/03 05:36:35;;;;;;;49.72;47.00;;;;;;;;;;5002796;28;20033;-65
2023/10/03 05:39:01;;;;;;;50.70;47.95;;;;;;;;;;5004459;28;20048;-65
2023/10/03 05:41:26;;;;;;;51.72;48.90;;;;;;;;;;5002844;28;20456;-63
2023/10/03 05:43:52;;;;;;;54.97;51.40;;;;;;;;;;5004133;28;20239;-67
2023/10/03 05:46:17;;;;;;;49.50;46.78;;;;;;;;;;5004170;28;20121;-64
2023/10/03 05:48:43;;;;;;;47.50;44.80;;;;;;;;;;5004428;28;20613;-64
2023/10/03 05:51:09;;;;;;;51.15;47.92;;;;;;;;;;4985005;28;20089;-64
2023/10/03 05:53:35;;;;;;;46.03;43.42;;;;;;;;;;5003328;28;20116;-65
2023/10/03 05:56:02;;;;;;;47.53;44.42;;;;;;;;;;5003621;28;20176;-64
2023/10/03 05:58:30;;;;;;;47.17;44.30;;;;;;;;;;5004756;28;20113;-64
2023/10/03 06:00:55;;;;;;;46.95;44.28;;;;;;;;;;4987345;28;20037;-65
2023/10/03 06:03:21;;;;;;;49.25;45.08;;;;;;;;;;4986467;28;20053;-65
2023/10/03 06:05:46;;;;;;;44.30;41.88;;;;;;;;;;5005999;28;20022;-63
2023/10/03 06:08:12;;;;;;;44.70;41.92;;;;;;;;;;5004196;28;20129;-64
2023/10/03 06:10:39;;;;;;;39.40;37.15;;;;;;;;;;5004112;28;20041;-63
2023/10/03 06:13:09;;;;;;;38.30;36.10;;;;;;;;;;5002449;28;20899;-63
2023/10/03 06:15:36;;;;;;;35.83;33.53;;;;;;;;;;4985409;28;20430;-64
2023/10/03 06:18:02;;;;;;;34.38;32.47;;;;;;;;;;5002865;28;20034;-64
2023/10/03 06:20:27;;;;;;;28.88;26.88;;;;;;;;;;5004481;28;20421;-65
2023/10/03 06:22:54;;;;;;;26.70;24.40;;;;;;;;;;5001621;28;20383;-63
2023/10/03 06:25:19;;;;;;;28.80;27.25;;;;;;;;;;5004761;28;20044;-62
2023/10/03 06:27:45;;;;;;;29.60;27.80;;;;;;;;;;5005511;28;20026;-62
2023/10/03 06:30:10;;;;;;;25.27;23.65;;;;;;;;;;5001456;28;20053;-62
2023/10/03 06:32:36;;;;;;;25.80;24.17;;;;;;;;;;5002042;28;20541;-62
2023/10/03 06:35:02;;;;;;;25.80;24.27;;;;;;;;;;5002384;28;20052;-62
2023/10/03 06:37:27;;;;;;;28.33;26.65;;;;;;;;;;4988176;28;20387;-61
2023/10/03 06:39:52;;;;;;;27.90;25.95;;;;;;;;;;4986362;28;20083;-61
2023/10/03 06:42:18;;;;;;;27.45;25.17;;;;;;;;;;5004210;28;20416;-64
2023/10/03 06:44:44;;;;;;;27.98;26.38;;;;;;;;;;5001053;28;20474;-62
2023/10/03 06:47:10;;;;;;;28.02;26.35;;;;;;;;;;5004317;28;20400;-64
2023/10/03 06:49:36;;;;;;;28.20;26.40;;;;;;;;;;4989505;28;20459;-64
2023/10/03 06:52:03;;;;;;;28.08;26.10;;;;;;;;;;5003333;28;20037;-64
2023/10/03 06:54:29;;;;;;;30.00;28.20;;;;;;;;;;4989153;28;20037;-64
2023/10/03 06:56:55;;;;;;;29.70;27.80;;;;;;;;;;5003657;28;20120;-62
2023/10/03 06:59:20;;;;;;;28.77;26.60;;;;;;;;;;5003828;28;20049;-64
2023/10/03 07:01:46;;;;;;;28.05;26.35;;;;;;;;;;5002223;28;20038;-64
2023/10/03 07:04:11;;;;;;;28.27;26.58;;;;;;;;;;5003965;28;20037;-64
2023/10/03 07:06:37;;;;;;;28.83;27.00;;;;;;;;;;5005503;28;20105;-62
2023/10/03 07:09:08;;;;;;;29.98;28.08;;;;;;;;;;5004047;28;20044;-62
2023/10/03 07:11:34;;;;;;;29.20;27.40;;;;;;;;;;5001586;28;20478;-63
2023/10/03 07:14:00;;;;;;;28.25;26.67;;;;;;;;;;5003002;28;20124;-64
2023/10/03 07:16:25;;;;;;;29.17;27.58;;;;;;;;;;5004512;28;20038;-64
2023/10/03 07:18:50;;;;;;;30.65;28.58;;;;;;;;;;5003618;28;20048;-63
2023/10/03 07:21:16;;;;;;;29.48;27.73;;;;;;;;;;5002338;28;20029;-62
2023/10/03 07:23:43;;;;;;;28.42;26.63;;;;;;;;;;4987412;28;20065;-65
2023/10/03 07:26:08;;;;;;;33.25;31.05;;;;;;;;;;5002232;28;20037;-64
2023/10/03 07:28:34;;;;;;;26.27;24.52;;;;;;;;;;5002255;28;20125;-65
2023/10/03 07:30:59;;;;;;;27.02;25.38;;;;;;;;;;5000394;28;20364;-64
2023/10/03 07:33:24;;;;;;;25.85;24.35;;;;;;;;;;5002972;28;20117;-63
2023/10/03 07:35:50;;;;;;;25.05;23.67;;;;;;;;;;5003939;28;20026;-64
2023/10/03 07:38:16;;;;;;;24.30;22.92;;;;;;;;;;4987034;28;20042;-65
2023/10/03 07:40:41;;;;;;;27.60;25.92;;;;;;;;;;5003018;28;20049;-65
2023/10/03 07:43:10;;;;;;;25.65;23.95;;;;;;;;;;5001624;28;20088;-64
2023/10/03 07:45:37;;;;;;;25.20;23.77;;;;;;;;;;5002588;28;20038;-64
2023/10/03 07:48:05;;;;;;;26.67;25.08;;;;;;;;;;5002938;28;20045;-64
2023/10/03 07:50:31;;;;;;;29.15;27.08;;;;;;;;;;5001875;28;20065;-63
2023/10/03 07:52:57;;;;;;;31.27;29.38;;;;;;;;;;4984741;28;20353;-64
2023/10/03 07:55:26;;;;;;;32.25;30.45;;;;;;;;;;4988447;28;20048;-66
2023/10/03 07:57:54;;;;;;;28.33;26.80;;;;;;;;;;5006234;28;20081;-65
2023/10/03 08:00:21;;;;;;;30.15;27.73;;;;;;;;;;4973495;28;20363;-64
2023/10/03 08:02:49;;;;;;;29.23;27.63;;;;;;;;;;5006831;28;20538;-64
2023/10/03 08:05:15;;;;;;;25.08;23.63;;;;;;;;;;5007756;28;20038;-63
2023/10/03 08:07:47;;;;;;;31.00;29.30;;;;;;;;;;5004647;28;20025;-63
2023/10/03 08:10:14;;;;;;;32.13;30.35;;;;;;;;;;5006992;28;20028;-62
2023/10/03 08:12:40;;;;;;;31.25;29.55;;;;;;;;;;5006889;28;20041;-63
2023/10/03 08:15:17;;;;;;;30.20;28.52;;;;;;;;;;5002964;28;20088;-62
2023/10/03 08:17:48;;;;;;;35.75;33.85;;;;;;;;;;5006863;28;20576;-62
2023/10/03 08:20:18;;;;;;;31.15;29.42;;;;;;;;;;5006204;28;20033;-62
2023/10/03 08:22:50;;;;;;;;;;;;;;;;;;5006364;28;20029;-66
2023/10/03 08:25:18;;;;;;;24.95;23.35;;;;;;;;;;5005232;28;19913;-63
2023/10/03 08:27:46;;;;;;;26.85;25.27;;;;;;;;;;5006430;28;20053;-62
2023/10/03 08:30:25;;;;;;;27.27;25.73;;;;;;;;;;5003569;28;20072;-65
2023/10/03 08:33:04;;;;;;;29.50;27.85;;;;;;;;;;5005051;28;20044;-64
2023/10/03 08:35:40;;;;;;;26.35;24.80;;;;;;;;;;5005653;28;20048;-65
2023/10/03 08:38:07;;;;;;;28.38;26.83;;;;;;;;;;5006046;28;20026;-66
2023/10/03 08:40:36;;;;;;;27.20;25.70;;;;;;;;;;4988940;28;20041;-68
2023/10/03 08:43:10;;;;;;;30.67;28.95;;;;;;;;;;5005623;28;20030;-66
2023/10/03 08:45:52;;;;;;;35.17;33.33;;;;;;;;;;5005235;28;20360;-66
2023/10/03 08:48:24;;;;;;;29.13;27.50;;;;;;;;;;5004482;28;20396;-63
2023/10/03 08:50:53;;;;;;;22.23;20.88;;;;;;;;;;5006675;28;20172;-64
2023/10/03 08:53:26;;;;;;;28.80;26.70;;;;;;;;;;5006710;28;20034;-65
2023/10/03 08:56:02;;;;;;;35.22;33.33;;;;;;;;;;5004905;28;20475;-66
2023/10/03 08:58:28;;;;;;;26.27;24.83;;;;;;;;;;5005160;28;20034;-66
2023/10/03 09:00:58;;;;;;;27.30;25.67;;;;;;;;;;4988104;28;20361;-66
2023/10/03 09:03:29;;;;;;;24.85;23.48;;;;;;;;;;4985446;28;20034;-66
2023/10/03 09:05:58;;;;;;;27.45;25.95;;;;;;;;;;5003007;28;20041;-65
2023/10/03 09:08:25;;;;;;;25.17;23.77;;;;;;;;;;5003669;28;20045;-64
2023/10/03 09:11:13;;;;;;;30.17;28.42;;;;;;;;;;4989767;28;20034;-63
2023/10/03 09:13:40;;;;;;;32.00;30.15;;;;;;;;;;5003718;28;20236;-64
2023/10/03 09:16:08;;;;;;;33.97;32.13;;;;;;;;;;4991563;28;20029;-65
2023/10/03 09:18:41;;;;;;;35.67;33.75;;;;;;;;;;5006809;28;20041;-65
2023/10/03 09:21:08;;;;;;;45.47;42.92;;;;;;;;;;5005177;28;20369;-65
2023/10/03 09:23:40;;;;;;;45.45;43.10;;;;;;;;;;5004778;28;20121;-63
2023/10/03 09:26:08;;;;;;;50.15;47.55;;;;;;;;;;4988102;28;20038;-64
2023/10/03 09:28:40;;;;;;;51.22;48.60;;;;;;;;;;5003938;28;20042;-64
2023/10/03 09:31:09;;;;;;;51.25;48.58;;;;;;;;;;4984886;28;20529;-63
2023/10/03 09:33:38;;;;;;;46.85;44.45;;;;;;;;;;4986625;28;20137;-65
2023/10/03 09:36:04;;;;;;;48.40;45.90;;;;;;;;;;5004989;28;20115;-65
2023/10/03 09:38:47;;;;;;;50.88;48.17;;;;;;;;;;4987281;28;20144;-66
2023/10/03 09:41:17;;;;;;;57.03;54.00;;;;;;;;;;5004671;28;20034;-66
2023/10/03 09:43:56;;;;;;;55.95;53.10;;;;;;;;;;5005882;28;20033;-63
2023/10/03 09:46:41;;;;;;;57.50;54.47;;;;;;;;;;5006436;28;20552;-63
2023/10/03 09:49:10;;;;;;;61.95;58.83;;;;;;;;;;5005748;28;20052;-63
2023/10/03 09:51:36;;;;;;;63.55;60.20;;;;;;;;;;5005550;28;20127;-66
2023/10/03 09:54:10;;;;;;;68.50;65.07;;;;;;;;;;5004032;28;20487;-66
2023/10/03 09:56:40;;;;;;;60.47;57.30;;;;;;;;;;5004898;28;20534;-66
2023/10/03 09:59:07;;;;;;;63.30;60.03;;;;;;;;;;4988306;28;20048;-63
2023/10/03 10:01:34;;;;;;;64.38;60.85;;;;;;;;;;4989539;28;20781;-66
2023/10/03 10:04:03;;;;;;;62.75;59.58;;;;;;;;;;5004133;28;20026;-63
2023/10/03 10:06:47;;;;;;;59.35;56.13;;;;;;;;;;4987434;28;20099;-66
2023/10/03 10:09:28;;;;;;;70.22;66.72;;;;;;;;;;5003091;28;20041;-63
2023/10/03 10:12:19;;;;;;;65.68;62.42;;;;;;;;;;5003811;28;20045;-67
2023/10/03 10:15:26;;;;;;;;;;;;;;;;;;5004021;28;20041;-65
2023/10/03 10:17:54;;;;;;;48.20;45.75;;;;;;;;;;5001292;28;19992;-62
2023/10/03 10:20:27;;;;;;;53.63;50.92;;;;;;;;;;5003977;28;20097;-63
2023/10/03 10:22:58;;;;;;;51.13;48.38;;;;;;;;;;5002780;28;20410;-63
2023/10/03 10:25:28;;;;;;;55.50;52.65;;;;;;;;;;5005048;28;20149;-64
2023/10/03 10:28:06;;;;;;;62.45;59.28;;;;;;;;;;5004388;28;20034;-65
2023/10/03 10:30:39;;;;;;;65.10;61.80;;;;;;;;;;5003246;28;20034;-63
2023/10/03 10:33:23;;;;;;;64.78;61.47;;;;;;;;;;5004106;28;20463;-66
2023/10/03 10:35:56;;;;;;;53.72;51.00;;;;;;;;;;5004485;28;20045;-64
2023/10/03 10:38:42;;;;;;;56.78;53.85;;;;;;;;;;5002400;28;20037;-64
2023/10/03 10:41:27;;;;;;;64.97;61.70;;;;;;;;;;5002714;28;20577;-65
2023/10/03 10:44:13;;;;;;;62.00;58.90;;;;;;;;;;5001440;28;20069;-67
2023/10/03 10:46:52;;;;;;;67.55;63.90;;;;;;;;;;5003472;28;20460;-65
2023/10/03 10:49:36;;;;;;;59.50;56.35;;;;;;;;;;5004742;28;20059;-65
2023/10/03 10:52:09;;;;;;;68.05;64.50;;;;;;;;;;4984705;28;20054;-63
2023/10/03 10:54:41;;;;;;;56.40;53.47;;;;;;;;;;5003040;28;20455;-63
2023/10/03 10:57:09;;;;;;;65.20;61.80;;;;;;;;;;5001843;28;20034;-65
2023/10/03 10:59:43;;;;;;;66.20;62.80;;;;;;;;;;5003750;28;20065;-67
2023/10/03 11:02:20;;;;;;;70.70;67.10;;;;;;;;;;5004577;28;20040;-65
2023/10/03 11:04:53;;;;;;;69.50;66.00;;;;;;;;;;4987213;28;20033;-64
2023/10/03 11:07:23;;;;;;;58.05;55.08;;;;;;;;;;5002364;28;20044;-64
2023/10/03 11:09:50;;;;;;;61.42;58.28;;;;;;;;;;5001353;28;20060;-64
2023/10/03 11:12:23;;;;;;;58.45;55.42;;;;;;;;;;5004527;28;20048;-65
2023/10/03 11:14:48;;;;;;;59.35;56.13;;;;;;;;;;5002091;28;20041;-64
2023/10/03 11:17:24;;;;;;;56.25;53.38;;;;;;;;;;5004563;28;20048;-64
2023/10/03 11:19:51;;;;;;;54.08;51.30;;;;;;;;;;4988663;28;20053;-62
2023/10/03 11:22:17;;;;;;;61.15;57.97;;;;;;;;;;5003014;28;20038;-64
2023/10/03 11:24:44;;;;;;;57.03;54.13;;;;;;;;;;5004893;28;20034;-68
2023/10/03 11:27:21;;;;;;;61.08;57.88;;;;;;;;;;4983784;28;20080;-65
2023/10/03 11:29:48;;;;;;;59.22;56.17;;;;;;;;;;5000291;28;20033;-65
2023/10/03 11:32:20;;;;;;;66.78;63.28;;;;;;;;;;5002632;28;20034;-64
2023/10/03 11:34:48;;;;;;;67.80;64.28;;;;;;;;;;4985721;28;20364;-67
2023/10/03 11:37:45;;;;;;;63.70;60.50;;;;;;;;;;5002623;28;20030;-66
2023/10/03 11:40:11;;;;;;;52.83;50.03;;;;;;;;;;5004120;28;20033;-66
2023/10/03 11:42:58;;;;;;;55.67;52.67;;;;;;;;;;5002890;28;20037;-64
2023/10/03 11:45:29;;;;;;;58.63;55.67;;;;;;;;;;5002565;28;20068;-64
2023/10/03 11:48:10;;;;;;;62.00;58.70;;;;;;;;;;4996855;28;20038;-64
2023/10/03 11:50:37;;;;;;;58.30;55.28;;;;;;;;;;5001702;28;20049;-65
2023/10/03 11:53:04;;;;;;;50.83;48.17;;;;;;;;;;5001905;28;20037;-64
2023/10/03 11:55:32;;;;;;;48.50;45.90;;;;;;;;;;5000854;28;20034;-63
2023/10/03 11:57:59;;;;;;;48.47;45.95;;;;;;;;;;5002763;28;20503;-65
2023/10/03 12:00:25;;;;;;;47.72;45.22;;;;;;;;;;5003899;28;20026;-64
2023/10/03 12:02:51;;;;;;;46.75;43.30;;;;;;;;;;5003901;28;20045;-63
2023/10/03 12:05:16;;;;;;;53.92;50.95;;;;;;;;;;5002952;28;20108;-63
2023/10/03 12:07:47;;;;;;;43.13;40.92;;;;;;;;;;5002011;28;20053;-62
2023/10/03 12:10:13;;;;;;;46.55;44.15;;;;;;;;;;4984622;28;20029;-63
2023/10/03 12:12:39;;;;;;;41.35;39.20;;;;;;;;;;5004355;28;20033;-64
2023/10/03 12:15:12;;;;;;;47.17;44.65;;;;;;;;;;5000157;28;20034;-63
2023/10/03 12:17:48;;;;;;;62.97;59.75;;;;;;;;;;5001237;28;20062;-66
2023/10/03 12:20:16;;;;;;;53.65;50.95;;;;;;;;;;5001626;28;20579;-67
2023/10/03 12:22:53;;;;;;;57.45;54.45;;;;;;;;;;5002006;28;20041;-67
2023/10/03 12:25:21;;;;;;;58.70;55.65;;;;;;;;;;4999765;28;20062;-65
2023/10/03 12:27:47;;;;;;;56.65;53.42;;;;;;;;;;4987031;28;20058;-66
2023/10/03 12:30:15;;;;;;;56.45;53.55;;;;;;;;;;5002202;28;20729;-65
2023/10/03 12:32:44;;;;;;;42.65;40.15;;;;;;;;;;5004653;28;20045;-65
2023/10/03 12:35:11;;;;;;;42.35;40.10;;;;;;;;;;5000113;28;20041;-64
2023/10/03 12:37:38;;;;;;;41.35;39.00;;;;;;;;;;4986258;28;20054;-63
2023/10/03 12:40:08;;;;;;;43.70;41.42;;;;;;;;;;5003389;28;20060;-65
2023/10/03 12:42:35;;;;;;;;;;;;;;;;;;4993960;28;20025;-69
2023/10/03 12:45:03;;;;;;;71.72;68.10;;;;;;;;;;5004684;28;19922;-67
2023/10/03 12:47:35;;;;;;;105.32;100.13;;;;;;;;;;5006386;28;20029;-65
2023/10/03 12:50:01;;;;;;;127.07;120.78;;;;;;;;;;5005423;28;20049;-65
2023/10/03 12:52:30;;;;;;;168.68;160.50;;;;;;;;;;5004446;28;20092;-65
2023/10/03 12:54:56;;;;;;;187.15;178.15;;;;;;;;;;5002899;28;20133;-65
2023/10/03 12:57:22;;;;;;;198.45;188.82;;;;;;;;;;5004329;28;20029;-68
2023/10/03 12:59:52;;;;;;;181.95;173.07;;;;;;;;;;4987484;28;20025;-65
2023/10/03 13:02:21;;;;;;;200.33;190.40;;;;;;;;;;5007013;28;20034;-65
2023/10/03 13:04:50;;;;;;;175.23;166.52;;;;;;;;;;5005610;28;20537;-63
2023/10/03 13:07:16;;;;;;;115.15;109.43;;;;;;;;;;5005530;28;20030;-63
2023/10/03 13:09:46;;;;;;;120.07;114.07;;;;;;;;;;4988751;28;20037;-68
2023/10/03 13:12:12;;;;;;;97.10;92.20;;;;;;;;;;5005692;28;20038;-64
2023/10/03 13:14:38;;;;;;;73.63;69.95;;;;;;;;;;5006691;28;20034;-63
2023/10/03 13:17:04;;;;;;;74.68;70.85;;;;;;;;;;5005731;28;20069;-64
2023/10/03 13:19:30;;;;;;;85.85;81.60;;;;;;;;;;5003943;28;20104;-67
2023/10/03 13:21:57;;;;;;;75.47;71.63;;;;;;;;;;5004095;28;20042;-67
2023/10/03 13:24:24;;;;;;;83.43;79.07;;;;;;;;;;5007990;28;20134;-67
2023/10/03 13:26:51;;;;;;;95.70;90.93;;;;;;;;;;5006610;28;20088;-64
2023/10/03 13:29:17;;;;;;;98.35;93.38;;;;;;;;;;5005257;28;20033;-63
2023/10/03 13:31:43;;;;;;;103.50;98.20;;;;;;;;;;5005355;28;20038;-65
2023/10/03 13:34:08;;;;;;;110.97;105.45;;;;;;;;;;5001251;28;20173;-63
2023/10/03 13:36:33;;;;;;;103.38;98.28;;;;;;;;;;5003258;28;20045;-68
2023/10/03 13:38:59;;;;;;;102.50;97.43;;;;;;;;;;5004511;28;20653;-63
2023/10/03 13:41:25;;;;;;;103.93;98.72;;;;;;;;;;5006668;28;20095;-63
2023/10/03 13:43:50;;;;;;;94.18;89.53;;;;;;;;;;5004355;28;20038;-64
2023/10/03 13:46:16;;;;;;;105.80;99.65;;;;;;;;;;5006535;28;20029;-65
2023/10/03 13:48:42;;;;;;;91.65;87.03;;;;;;;;;;4987815;28;20021;-67
2023/10/03 13:51:07;;;;;;;94.20;89.53;;;;;;;;;;5003882;28;20096;-67
2023/10/03 13:53:33;;;;;;;106.55;101.07;;;;;;;;;;5004726;28;20046;-63
2023/10/03 13:55:59;;;;;;;105.45;100.20;;;;;;;;;;5004053;28;20037;-66
2023/10/03 13:58:29;;;;;;;105.32;99.93;;;;;;;;;;5003271;28;20037;-67
2023/10/03 14:00:55;;;;;;;102.93;97.53;;;;;;;;;;5000839;28;20125;-62
2023/10/03 14:03:20;;;;;;;103.18;97.85;;;;;;;;;;5003059;28;20038;-63
2023/10/03 14:05:46;;;;;;;99.35;94.40;;;;;;;;;;5003760;28;20033;-64
2023/10/03 14:08:11;;;;;;;95.75;90.95;;;;;;;;;;5003225;28;20021;-64
2023/10/03 14:10:43;;;;;;;93.82;89.03;;;;;;;;;;5002407;28;20136;-62
2023/10/03 14:13:10;;;;;;;94.72;90.05;;;;;;;;;;5003157;28;20049;-66
2023/10/03 14:15:43;;;;;;;93.50;88.78;;;;;;;;;;4988140;28;20045;-63
2023/10/03 14:18:09;;;;;;;93.88;88.97;;;;;;;;;;5003031;28;20487;-62
2023/10/03 14:20:39;;;;;;;95.13;90.43;;;;;;;;;;5001563;28;20491;-64
2023/10/03 14:23:05;;;;;;;84.40;80.17;;;;;;;;;;5002492;28;20353;-62
2023/10/03 14:25:31;;;;;;;84.93;80.70;;;;;;;;;;5004410;28;20021;-62